Lady Eman — 5IM513 — position and weather

sailwx.info

Track history (hours):
 
Tides and Currents Weather Stations Pressure Air Temp Water Temp Dewpoint Dewpoint Depression Visibility Wind Speed Wind Dir Waves Ship Positions

Lady Eman

Last reported at 2014-Aug-24 15:29 UTC. Time now 2014-Aug-29 03:30 UTC.
Position N 40°40' E 027°40'.

Length 92 m; draft 7.6 m.

Type: Cargo ship. MMSI: 677041300.

Date/timePositionNaut miles runAvg speedWind from/ knotsBaromVisibWave heightAir tempDewpointWater temp
2014-Aug-24 15:29N 40°40' E 027°40'5 0.8
2014-Aug-24 09:16N 40°36' E 027°44'97 3.3
2014-Aug-23 03:31N 39°47' E 025°55'75 9.3
2014-Aug-22 19:26N 38°32' E 025°46'22 9.5
2014-Aug-22 17:06N 38°10' E 025°49'19 9.5
2014-Aug-22 15:08N 37°51' E 025°53'8 9.8
2014-Aug-22 14:19N 37°43' E 025°54'8 9.6
2014-Aug-22 13:33N 37°36' E 025°54'9 9.0
2014-Aug-22 12:33N 37°27' E 025°56'9 8.8
2014-Aug-22 11:34N 37°19' E 026°00'9 8.8
2014-Aug-22 10:34N 37°11' E 026°04'9 8.9
2014-Aug-22 09:33N 37°03' E 026°09'10 8.9
2014-Aug-22 08:26N 36°53' E 026°12'9 9.4
2014-Aug-22 07:31N 36°45' E 026°09'9 9.8
2014-Aug-22 06:33N 36°36' E 026°05'10 9.7
2014-Aug-22 05:34N 36°26' E 026°07'10 9.6
2014-Aug-22 04:33N 36°17' E 026°10'10 9.5
2014-Aug-22 03:30N 36°07' E 026°13'9 9.5
2014-Aug-22 02:32N 35°58' E 026°16'  
Track history (hours):
 
Tides and Currents Weather Stations Pressure Air Temp Water Temp Dewpoint Dewpoint Depression Visibility Wind Speed Wind Dir Waves Ship Positions

Lady Eman

Last reported at 2014-Aug-24 15:29 UTC. Time now 2014-Aug-29 03:30 UTC.
Position N 40°40' E 027°40'.

Length 92 m; draft 7.6 m.

Type: Cargo ship. MMSI: 677041300.

Date/timePositionNaut miles runAvg speedWind from/ knotsBaromVisibWave heightAir tempDewpointWater temp
2014-Aug-24 15:29N 40°40' E 027°40'5 0.8
2014-Aug-24 09:16N 40°36' E 027°44'97 3.3
2014-Aug-23 03:31N 39°47' E 025°55'75 9.3
2014-Aug-22 19:26N 38°32' E 025°46'22 9.5
2014-Aug-22 17:06N 38°10' E 025°49'19 9.5
2014-Aug-22 15:08N 37°51' E 025°53'8 9.8
2014-Aug-22 14:19N 37°43' E 025°54'8 9.6
2014-Aug-22 13:33N 37°36' E 025°54'9 9.0
2014-Aug-22 12:33N 37°27' E 025°56'9 8.8
2014-Aug-22 11:34N 37°19' E 026°00'9 8.8
2014-Aug-22 10:34N 37°11' E 026°04'9 8.9
2014-Aug-22 09:33N 37°03' E 026°09'10 8.9
2014-Aug-22 08:26N 36°53' E 026°12'9 9.4
2014-Aug-22 07:31N 36°45' E 026°09'9 9.8
2014-Aug-22 06:33N 36°36' E 026°05'10 9.7
2014-Aug-22 05:34N 36°26' E 026°07'10 9.6
2014-Aug-22 04:33N 36°17' E 026°10'10 9.5
2014-Aug-22 03:30N 36°07' E 026°13'9 9.5
2014-Aug-22 02:32N 35°58' E 026°16'  

Dump ship's entire track history